sensor_id;sensor_type;location;lat;lon;timestamp;pressure;altitude;pressure_sealevel;temperature;humidity
63096;BME280;49184;55.596;37.770;2023-10-19T06:58:34;98630.34;;;8.08;76.71
63096;BME280;49184;55.596;37.770;2023-10-19T07:01:08;98677.09;;;8.32;75.73
63096;BME280;49184;55.596;37.770;2023-10-19T07:03:45;98691.41;;;8.38;76.41
63096;BME280;49184;55.596;37.770;2023-10-19T07:06:31;98677.09;;;8.32;75.87
63096;BME280;49184;55.596;37.770;2023-10-19T07:09:02;98689.50;;;8.38;76.41
63096;BME280;49184;55.596;37.770;2023-10-19T07:11:53;98693.97;;;8.43;75.85
63096;BME280;49184;55.596;37.770;2023-10-19T07:14:22;98629.53;;;7.98;75.66
63096;BME280;49184;55.596;37.770;2023-10-19T07:16:50;98696.75;;;8.52;75.53
63096;BME280;49184;55.596;37.770;2023-10-19T07:19:18;98636.94;;;8.07;75.62
63096;BME280;49184;55.596;37.770;2023-10-19T07:21:46;98707.31;;;8.44;75.37
63096;BME280;49184;55.596;37.770;2023-10-19T07:24:16;98634.34;;;8.02;74.93
63096;BME280;49184;55.596;37.770;2023-10-19T07:26:53;98707.19;;;8.58;75.58
63096;BME280;49184;55.596;37.770;2023-10-19T07:29:28;98648.06;;;8.28;75.36
63096;BME280;49184;55.596;37.770;2023-10-19T07:31:57;98663.53;;;8.41;74.23
63096;BME280;49184;55.596;37.770;2023-10-19T07:34:24;98666.00;;;8.60;75.34
63096;BME280;49184;55.596;37.770;2023-10-19T07:36:55;98604.31;;;8.15;74.83
63096;BME280;49184;55.596;37.770;2023-10-19T07:39:21;98700.75;;;8.94;74.78
63096;BME280;49184;55.596;37.770;2023-10-19T07:41:50;98573.84;;;8.05;74.16
63096;BME280;49184;55.596;37.770;2023-10-19T07:44:18;98591.16;;;8.17;74.63
63096;BME280;49184;55.596;37.770;2023-10-19T07:46:44;98625.72;;;8.39;74.00
63096;BME280;49184;55.596;37.770;2023-10-19T07:49:10;98707.94;;;8.90;73.69
63096;BME280;49184;55.596;37.770;2023-10-19T07:51:51;98622.13;;;8.30;73.20
63096;BME280;49184;55.596;37.770;2023-10-19T07:54:19;98675.41;;;8.45;73.55
63096;BME280;49184;55.596;37.770;2023-10-19T07:56:49;98603.91;;;7.99;74.04
63096;BME280;49184;55.596;37.770;2023-10-19T07:59:18;98638.84;;;8.06;73.91
63096;BME280;49184;55.596;37.770;2023-10-19T08:01:48;98717.25;;;8.49;74.50
63096;BME280;49184;55.596;37.770;2023-10-19T08:04:26;98601.81;;;7.65;75.07
63096;BME280;49184;55.596;37.770;2023-10-19T08:06:55;98671.00;;;8.04;75.54
63096;BME280;49184;55.596;37.770;2023-10-19T08:09:23;98608.69;;;7.63;75.50
63096;BME280;49184;55.596;37.770;2023-10-19T08:14:51;98658.94;;;8.19;75.22
63096;BME280;49184;55.596;37.770;2023-10-19T08:17:19;98683.66;;;8.31;75.27
63096;BME280;49184;55.596;37.770;2023-10-19T08:19:47;98653.16;;;8.20;74.99
63096;BME280;49184;55.596;37.770;2023-10-19T08:22:13;98649.00;;;8.23;73.29
63096;BME280;49184;55.596;37.770;2023-10-19T08:24:41;98718.66;;;8.78;73.05
63096;BME280;49184;55.596;37.770;2023-10-19T08:27:17;98718.31;;;8.79;73.11
63096;BME280;49184;55.596;37.770;2023-10-19T08:29:50;98718.91;;;8.67;73.63
63096;BME280;49184;55.596;37.770;2023-10-19T08:32:20;98667.91;;;8.19;73.92
63096;BME280;49184;55.596;37.770;2023-10-19T08:34:53;98730.50;;;8.42;72.93
63096;BME280;49184;55.596;37.770;2023-10-19T08:37:21;98669.19;;;8.22;74.57
63096;BME280;49184;55.596;37.770;2023-10-19T08:39:49;98689.41;;;8.30;73.54
63096;BME280;49184;55.596;37.770;2023-10-19T08:42:48;98720.59;;;8.46;74.50
63096;BME280;49184;55.596;37.770;2023-10-19T08:45:17;98655.75;;;7.94;73.58
63096;BME280;49184;55.596;37.770;2023-10-19T08:47:55;98693.47;;;8.10;74.83
63096;BME280;49184;55.596;37.770;2023-10-19T08:50:30;98611.34;;;7.54;75.25
63096;BME280;49184;55.596;37.770;2023-10-19T08:52:58;98685.66;;;7.86;75.45
63096;BME280;49184;55.596;37.770;2023-10-19T08:55:25;98666.59;;;7.63;76.00
63096;BME280;49184;55.596;37.770;2023-10-19T08:57:54;98648.66;;;7.40;76.66
63096;BME280;49184;55.596;37.770;2023-10-19T09:00:20;98710.56;;;7.79;77.20
63096;BME280;49184;55.596;37.770;2023-10-19T09:03:25;98733.56;;;7.95;77.89
63096;BME280;49184;55.596;37.770;2023-10-19T09:06:28;98660.09;;;7.50;78.08
63096;BME280;49184;55.596;37.770;2023-10-19T09:09:10;98698.19;;;7.73;77.29
63096;BME280;49184;55.596;37.770;2023-10-19T09:12:09;98708.13;;;7.77;78.11
63096;BME280;49184;55.596;37.770;2023-10-19T09:14:39;98705.50;;;7.86;77.34
63096;BME280;49184;55.596;37.770;2023-10-19T09:17:27;98622.03;;;7.28;77.71
63096;BME280;49184;55.596;37.770;2023-10-19T09:20:19;98694.50;;;7.91;77.84
63096;BME280;49184;55.596;37.770;2023-10-19T09:22:55;98703.81;;;7.99;78.03
63096;BME280;49184;55.596;37.770;2023-10-19T09:25:24;98631.16;;;7.54;77.69
63096;BME280;49184;55.596;37.770;2023-10-19T09:28:02;98675.22;;;7.88;77.46
63096;BME280;49184;55.596;37.770;2023-10-19T09:30:32;98648.28;;;7.77;78.25
63096;BME280;49184;55.596;37.770;2023-10-19T09:33:02;98704.34;;;8.10;77.20
63096;BME280;49184;55.596;37.770;2023-10-19T09:35:30;98654.41;;;7.83;77.80
63096;BME280;49184;55.596;37.770;2023-10-19T09:37:57;98726.16;;;8.41;77.39
63096;BME280;49184;55.596;37.770;2023-10-19T09:40:23;98646.44;;;7.87;76.84
63096;BME280;49184;55.596;37.770;2023-10-19T09:42:53;98749.16;;;8.57;76.89
63096;BME280;49184;55.596;37.770;2023-10-19T09:45:27;98703.28;;;8.42;77.50
63096;BME280;49184;55.596;37.770;2023-10-19T09:47:56;98673.41;;;8.37;76.46
63096;BME280;49184;55.596;37.770;2023-10-19T09:50:29;98670.75;;;8.45;75.80
63096;BME280;49184;55.596;37.770;2023-10-19T09:53:04;98708.69;;;8.73;76.52
63096;BME280;49184;55.596;37.770;2023-10-19T09:55:35;98740.97;;;8.97;74.05
63096;BME280;49184;55.596;37.770;2023-10-19T09:58:31;98741.34;;;9.04;75.69
63096;BME280;49184;55.596;37.770;2023-10-19T10:01:01;98707.63;;;8.91;74.09
63096;BME280;49184;55.596;37.770;2023-10-19T10:03:55;98707.13;;;8.89;74.88
63096;BME280;49184;55.596;37.770;2023-10-19T10:06:30;98738.44;;;9.09;75.68
63096;BME280;49184;55.596;37.770;2023-10-19T10:09:00;98693.16;;;8.82;75.27
63096;BME280;49184;55.596;37.770;2023-10-19T10:11:42;98743.94;;;9.18;74.19
63096;BME280;49184;55.596;37.770;2023-10-19T10:15:01;98657.25;;;8.72;74.81
63096;BME280;49184;55.596;37.770;2023-10-19T10:17:36;98750.22;;;9.36;74.64
63096;BME280;49184;55.596;37.770;2023-10-19T10:23:26;98684.38;;;9.03;73.53
63096;BME280;49184;55.596;37.770;2023-10-19T10:26:21;98727.75;;;9.39;73.42
63096;BME280;49184;55.596;37.770;2023-10-19T10:29:13;98740.75;;;9.59;74.14
63096;BME280;49184;55.596;37.770;2023-10-19T10:31:45;98737.25;;;9.59;73.50
63096;BME280;49184;55.596;37.770;2023-10-19T10:37:08;98672.06;;;9.23;73.16
63096;BME280;49184;55.596;37.770;2023-10-19T10:39:35;98749.13;;;9.63;73.95
63096;BME280;49184;55.596;37.770;2023-10-19T10:42:08;98709.47;;;9.39;73.92
63096;BME280;49184;55.596;37.770;2023-10-19T10:44:42;98704.97;;;9.44;73.52
63096;BME280;49184;55.596;37.770;2023-10-19T10:47:22;98748.78;;;9.73;73.62
63096;BME280;49184;55.596;37.770;2023-10-19T10:50:10;98658.91;;;9.16;73.26
63096;BME280;49184;55.596;37.770;2023-10-19T10:53:00;98698.41;;;9.45;74.01
63096;BME280;49184;55.596;37.770;2023-10-19T10:55:39;98681.38;;;9.39;73.55
63096;BME280;49184;55.596;37.770;2023-10-19T10:58:07;98704.19;;;9.52;73.76
63096;BME280;49184;55.596;37.770;2023-10-19T11:00:43;98708.50;;;9.44;73.46
63096;BME280;49184;55.596;37.770;2023-10-19T11:03:49;98635.00;;;8.96;72.97
63096;BME280;49184;55.596;37.770;2023-10-19T11:06:17;98763.59;;;9.63;74.83
63096;BME280;49184;55.596;37.770;2023-10-19T11:08:44;98713.00;;;9.31;74.42
63096;BME280;49184;55.596;37.770;2023-10-19T11:11:26;98708.94;;;9.20;73.72
63096;BME280;49184;55.596;37.770;2023-10-19T11:13:52;98669.31;;;8.88;74.44
63096;BME280;49184;55.596;37.770;2023-10-19T11:16:22;98688.53;;;9.00;74.60
63096;BME280;49184;55.596;37.770;2023-10-19T11:18:49;98680.03;;;8.93;74.65
63096;BME280;49184;55.596;37.770;2023-10-19T11:21:21;98764.34;;;9.47;74.69
63096;BME280;49184;55.596;37.770;2023-10-19T11:23:50;98717.97;;;9.21;73.76
63096;BME280;49184;55.596;37.770;2023-10-19T11:26:24;98654.84;;;8.79;72.97
63096;BME280;49184;55.596;37.770;2023-10-19T11:29:02;98765.78;;;9.53;73.58
63096;BME280;49184;55.596;37.770;2023-10-19T11:31:37;98746.81;;;9.22;73.31
63096;BME280;49184;55.596;37.770;2023-10-19T11:34:14;98710.38;;;9.09;74.20
63096;BME280;49184;55.596;37.770;2023-10-19T11:37:00;98728.41;;;9.27;73.89
63096;BME280;49184;55.596;37.770;2023-10-19T11:40:14;98690.00;;;9.06;74.48
63096;BME280;49184;55.596;37.770;2023-10-19T11:45:36;98716.19;;;9.25;74.45
63096;BME280;49184;55.596;37.770;2023-10-19T11:48:06;98683.09;;;9.00;74.69
63096;BME280;49184;55.596;37.770;2023-10-19T11:51:00;98642.81;;;8.80;74.54
63096;BME280;49184;55.596;37.770;2023-10-19T12:15:31;98747.66;;;9.48;74.54
63096;BME280;49184;55.596;37.770;2023-10-19T12:18:03;98662.22;;;8.87;74.92
63096;BME280;49184;55.596;37.770;2023-10-19T12:24:21;98754.59;;;9.54;74.75
63096;BME280;49184;55.596;37.770;2023-10-19T12:27:24;98651.16;;;8.83;74.28
63096;BME280;49184;55.596;37.770;2023-10-19T12:36:40;98654.97;;;8.74;73.42
63096;BME280;49184;55.596;37.770;2023-10-19T12:40:06;98652.75;;;8.76;74.52
63096;BME280;49184;55.596;37.770;2023-10-19T12:46:56;98763.22;;;9.39;73.97
63096;BME280;49184;55.596;37.770;2023-10-19T12:49:24;98729.81;;;9.07;73.60
63096;BME280;49184;55.596;37.770;2023-10-19T12:51:52;98730.72;;;9.03;74.25
63096;BME280;49184;55.596;37.770;2023-10-19T12:54:18;98717.88;;;8.86;73.50
63096;BME280;49184;55.596;37.770;2023-10-19T12:56:44;98716.84;;;8.73;73.07
63096;BME280;49184;55.596;37.770;2023-10-19T12:59:11;98680.09;;;8.53;73.81
63096;BME280;49184;55.596;37.770;2023-10-19T13:01:37;98706.13;;;8.77;73.62
63096;BME280;49184;55.596;37.770;2023-10-19T13:04:25;98694.13;;;8.78;73.13
63096;BME280;49184;55.596;37.770;2023-10-19T13:06:51;98695.50;;;8.66;73.04
63096;BME280;49184;55.596;37.770;2023-10-19T13:09:17;98713.03;;;8.74;73.21
63096;BME280;49184;55.596;37.770;2023-10-19T13:11:58;98723.16;;;8.82;73.25
63096;BME280;49184;55.596;37.770;2023-10-19T13:14:58;98763.47;;;9.11;73.11
63096;BME280;49184;55.596;37.770;2023-10-19T13:18:06;98768.31;;;9.14;73.52
63096;BME280;49184;55.596;37.770;2023-10-19T13:20:34;98767.19;;;9.15;73.62
63096;BME280;49184;55.596;37.770;2023-10-19T13:23:03;98726.66;;;8.83;73.16
63096;BME280;49184;55.596;37.770;2023-10-19T13:25:31;98721.53;;;8.81;73.53
63096;BME280;49184;55.596;37.770;2023-10-19T13:28:17;98771.84;;;9.15;74.30
63096;BME280;49184;55.596;37.770;2023-10-19T13:30:47;98745.78;;;8.91;74.07
63096;BME280;49184;55.596;37.770;2023-10-19T13:33:15;98774.06;;;9.13;75.10
63096;BME280;49184;55.596;37.770;2023-10-19T13:35:45;98767.00;;;9.12;74.80
63096;BME280;49184;55.596;37.770;2023-10-19T13:38:12;98722.31;;;8.73;74.84
63096;BME280;49184;55.596;37.770;2023-10-19T13:40:43;98730.81;;;8.80;75.24
63096;BME280;49184;55.596;37.770;2023-10-19T13:43:30;98782.06;;;9.09;75.63
63096;BME280;49184;55.596;37.770;2023-10-19T13:46:15;98731.78;;;8.76;75.60
63096;BME280;49184;55.596;37.770;2023-10-19T13:48:42;98756.00;;;8.86;76.04
63096;BME280;49184;55.596;37.770;2023-10-19T13:51:08;98704.31;;;8.55;76.24
63096;BME280;49184;55.596;37.770;2023-10-19T13:53:42;98778.69;;;9.04;76.46
63096;BME280;49184;55.596;37.770;2023-10-19T13:56:20;98713.44;;;8.59;76.57
63096;BME280;49184;55.596;37.770;2023-10-19T13:58:51;98720.31;;;8.56;76.36
63096;BME280;49184;55.596;37.770;2023-10-19T14:01:19;98730.25;;;8.61;76.75
63096;BME280;49184;55.596;37.770;2023-10-19T14:03:51;98733.81;;;8.61;76.73
63096;BME280;49184;55.596;37.770;2023-10-19T14:06:23;98798.88;;;9.03;76.88
63096;BME280;49184;55.596;37.770;2023-10-19T14:08:55;98698.47;;;8.39;76.61
63096;BME280;49184;55.596;37.770;2023-10-19T14:11:27;98721.09;;;8.48;76.83
63096;BME280;49184;55.596;37.770;2023-10-19T14:14:00;98726.09;;;8.55;76.91
63096;BME280;49184;55.596;37.770;2023-10-19T14:19:55;98752.44;;;8.68;77.01
63096;BME280;49184;55.596;37.770;2023-10-19T14:22:21;98699.66;;;8.33;77.20
63096;BME280;49184;55.596;37.770;2023-10-19T14:24:48;98705.91;;;8.33;77.31
63096;BME280;49184;55.596;37.770;2023-10-19T14:27:15;98758.00;;;8.63;77.42
63096;BME280;49184;55.596;37.770;2023-10-19T14:30:43;98792.06;;;8.74;77.53
63096;BME280;49184;55.596;37.770;2023-10-19T14:33:12;98731.41;;;8.37;77.94
63096;BME280;49184;55.596;37.770;2023-10-19T14:35:40;98766.63;;;8.56;78.11
63096;BME280;49184;55.596;37.770;2023-10-19T14:38:09;98686.72;;;8.07;77.87
63096;BME280;49184;55.596;37.770;2023-10-19T14:40:38;98769.22;;;8.61;78.20
63096;BME280;49184;55.596;37.770;2023-10-19T14:43:10;98771.13;;;8.61;77.76
63096;BME280;49184;55.596;37.770;2023-10-19T14:45:41;98749.94;;;8.49;77.81
63096;BME280;49184;55.596;37.770;2023-10-19T14:48:10;98764.41;;;8.58;77.99
63096;BME280;49184;55.596;37.770;2023-10-19T14:50:38;98762.94;;;8.52;77.91
63096;BME280;49184;55.596;37.770;2023-10-19T14:53:06;98786.19;;;8.58;77.86
63096;BME280;49184;55.596;37.770;2023-10-19T14:55:38;98769.28;;;8.47;78.24
63096;BME280;49184;55.596;37.770;2023-10-19T14:58:09;98721.19;;;8.12;78.32
63096;BME280;49184;55.596;37.770;2023-10-19T15:00:37;98755.38;;;8.27;78.46
63096;BME280;49184;55.596;37.770;2023-10-19T15:03:09;98753.16;;;8.29;78.53
63096;BME280;49184;55.596;37.770;2023-10-19T15:05:37;98818.81;;;8.72;78.33
63096;BME280;49184;55.596;37.770;2023-10-19T15:08:13;98826.34;;;8.75;78.61
63096;BME280;49184;55.596;37.770;2023-10-19T15:10:42;98761.31;;;8.29;78.94
63096;BME280;49184;55.596;37.770;2023-10-19T15:13:11;98794.13;;;8.46;78.71
63096;BME280;49184;55.596;37.770;2023-10-19T15:15:41;98714.19;;;7.97;78.46
63096;BME280;49184;55.596;37.770;2023-10-19T15:18:07;98794.75;;;8.43;78.98
63096;BME280;49184;55.596;37.770;2023-10-19T15:20:36;98776.88;;;8.28;79.32
63096;BME280;49184;55.596;37.770;2023-10-19T15:23:16;98790.53;;;8.37;79.45
63096;BME280;49184;55.596;37.770;2023-10-19T15:25:49;98796.69;;;8.42;79.47
63096;BME280;49184;55.596;37.770;2023-10-19T15:28:22;98743.41;;;8.05;79.24
63096;BME280;49184;55.596;37.770;2023-10-19T15:30:50;98781.81;;;8.26;79.35
63096;BME280;49184;55.596;37.770;2023-10-19T15:33:16;98705.91;;;7.80;79.29
63096;BME280;49184;55.596;37.770;2023-10-19T15:35:51;98739.00;;;7.95;79.71
63096;BME280;49184;55.596;37.770;2023-10-19T15:38:24;98742.66;;;7.91;79.54
63096;BME280;49184;55.596;37.770;2023-10-19T15:40:51;98735.41;;;7.86;79.71
63096;BME280;49184;55.596;37.770;2023-10-19T15:43:42;98755.38;;;8.04;79.58
63096;BME280;49184;55.596;37.770;2023-10-19T15:46:11;98787.19;;;8.17;79.57
63096;BME280;49184;55.596;37.770;2023-10-19T15:48:59;98758.44;;;8.03;79.89
63096;BME280;49184;55.596;37.770;2023-10-19T15:51:35;98781.38;;;8.10;80.21
63096;BME280;49184;55.596;37.770;2023-10-19T15:54:25;98760.66;;;8.00;79.66
63096;BME280;49184;55.596;37.770;2023-10-19T15:56:54;98760.00;;;7.95;79.82
63096;BME280;49184;55.596;37.770;2023-10-19T15:59:22;98760.97;;;7.99;80.02
63096;BME280;49184;55.596;37.770;2023-10-19T16:01:54;98831.66;;;8.49;80.45
63096;BME280;49184;55.596;37.770;2023-10-19T16:04:23;98714.50;;;7.73;80.17
63096;BME280;49184;55.596;37.770;2023-10-19T16:06:49;98826.81;;;8.46;80.18
63096;BME280;49184;55.596;37.770;2023-10-19T16:09:17;98812.44;;;8.32;80.28
63096;BME280;49184;55.596;37.770;2023-10-19T16:11:48;98801.84;;;8.30;80.07
63096;BME280;49184;55.596;37.770;2023-10-19T16:14:40;98794.81;;;8.29;79.99
63096;BME280;49184;55.596;37.770;2023-10-19T16:17:07;98777.06;;;8.09;79.38
63096;BME280;49184;55.596;37.770;2023-10-19T16:19:41;98825.69;;;8.47;79.59
63096;BME280;49184;55.596;37.770;2023-10-19T16:22:15;98788.63;;;8.15;79.36
63096;BME280;49184;55.596;37.770;2023-10-19T16:24:43;98715.56;;;7.63;80.38
63096;BME280;49184;55.596;37.770;2023-10-19T16:27:12;98714.88;;;7.58;81.10
63096;BME280;49184;55.596;37.770;2023-10-19T16:29:44;98755.97;;;7.92;80.37
63096;BME280;49184;55.596;37.770;2023-10-19T16:32:11;98682.19;;;7.49;80.39
63096;BME280;49184;55.596;37.770;2023-10-19T16:34:42;98759.38;;;7.98;80.43
63096;BME280;49184;55.596;37.770;2023-10-19T16:37:08;98760.97;;;7.99;79.91
63096;BME280;49184;55.596;37.770;2023-10-19T16:43:18;98737.16;;;7.82;79.88
63096;BME280;49184;55.596;37.770;2023-10-19T16:45:53;98812.44;;;8.32;80.14
63096;BME280;49184;55.596;37.770;2023-10-19T16:51:52;98756.75;;;7.93;80.09
63096;BME280;49184;55.596;37.770;2023-10-19T16:54:19;98747.53;;;7.80;80.30
63096;BME280;49184;55.596;37.770;2023-10-19T16:56:46;98798.22;;;8.12;80.56
63096;BME280;49184;55.596;37.770;2023-10-19T16:59:18;98765.53;;;7.90;80.32
63096;BME280;49184;55.596;37.770;2023-10-19T17:01:57;98750.44;;;7.84;80.18
63096;BME280;49184;55.596;37.770;2023-10-19T17:04:26;98764.84;;;7.84;80.21
63096;BME280;49184;55.596;37.770;2023-10-19T17:06:53;98708.81;;;7.61;80.46
63096;BME280;49184;55.596;37.770;2023-10-19T17:09:22;98797.41;;;8.12;80.26
63096;BME280;49184;55.596;37.770;2023-10-19T17:11:52;98801.13;;;8.16;80.42
63096;BME280;49184;55.596;37.770;2023-10-19T17:14:20;98763.44;;;7.87;80.50
63096;BME280;49184;55.596;37.770;2023-10-19T17:17:08;98839.75;;;8.40;80.73
63096;BME280;49184;55.596;37.770;2023-10-19T17:20:13;98797.59;;;8.15;79.95
63096;BME280;49184;55.596;37.770;2023-10-19T17:22:55;98843.28;;;8.41;80.01
63096;BME280;49184;55.596;37.770;2023-10-19T17:25:31;98773.47;;;8.00;79.47
63096;BME280;49184;55.596;37.770;2023-10-19T17:27:58;98800.97;;;8.21;79.48
63096;BME280;49184;55.596;37.770;2023-10-19T17:30:56;98828.16;;;8.35;78.74
63096;BME280;49184;55.596;37.770;2023-10-19T17:39:36;98791.38;;;7.79;78.27
63096;BME280;49184;55.596;37.770;2023-10-19T17:42:11;98796.31;;;7.76;78.01
63096;BME280;49184;55.596;37.770;2023-10-19T17:45:01;98840.94;;;7.89;78.05
63096;BME280;49184;55.596;37.770;2023-10-19T17:47:37;98778.06;;;7.41;78.43
63096;BME280;49184;55.596;37.770;2023-10-19T17:50:08;98753.13;;;7.25;78.10
63096;BME280;49184;55.596;37.770;2023-10-19T17:52:37;98798.81;;;7.50;78.27
63096;BME280;49184;55.596;37.770;2023-10-19T17:55:28;98776.50;;;7.26;78.13
63096;BME280;49184;55.596;37.770;2023-10-19T17:57:59;98748.91;;;7.05;78.22
63096;BME280;49184;55.596;37.770;2023-10-19T18:00:25;98773.88;;;7.21;78.07
63096;BME280;49184;55.596;37.770;2023-10-19T18:03:00;98785.06;;;7.19;78.25
63096;BME280;49184;55.596;37.770;2023-10-19T18:05:35;98821.78;;;7.44;78.16
63096;BME280;49184;55.596;37.770;2023-10-19T18:08:02;98783.44;;;7.18;78.37
63096;BME280;49184;55.596;37.770;2023-10-19T18:10:33;98815.13;;;7.37;78.73
63096;BME280;49184;55.596;37.770;2023-10-19T18:13:03;98857.63;;;7.60;78.79
63096;BME280;49184;55.596;37.770;2023-10-19T18:15:31;98828.94;;;7.40;78.94
63096;BME280;49184;55.596;37.770;2023-10-19T18:17:59;98836.81;;;7.42;78.84
63096;BME280;49184;55.596;37.770;2023-10-19T18:20:30;98824.28;;;7.41;78.84
63096;BME280;49184;55.596;37.770;2023-10-19T18:22:59;98865.06;;;7.68;78.63
63096;BME280;49184;55.596;37.770;2023-10-19T18:25:39;98770.38;;;7.06;78.66
63096;BME280;49184;55.596;37.770;2023-10-19T18:28:09;98833.06;;;7.38;78.79
63096;BME280;49184;55.596;37.770;2023-10-19T18:30:38;98815.63;;;7.25;78.77
63096;BME280;49184;55.596;37.770;2023-10-19T18:33:05;98820.28;;;7.24;79.29
63096;BME280;49184;55.596;37.770;2023-10-19T18:35:34;98798.06;;;7.09;79.35
63096;BME280;49184;55.596;37.770;2023-10-19T18:38:09;98876.78;;;7.55;79.61
63096;BME280;49184;55.596;37.770;2023-10-19T18:40:39;98850.28;;;7.47;79.64
63096;BME280;49184;55.596;37.770;2023-10-19T18:43:28;98822.72;;;7.26;79.15
63096;BME280;49184;55.596;37.770;2023-10-19T18:45:58;98790.69;;;7.09;79.25
63096;BME280;49184;55.596;37.770;2023-10-19T18:48:27;98833.66;;;7.35;79.00
63096;BME280;49184;55.596;37.770;2023-10-19T18:51:01;98769.97;;;6.99;78.89
63096;BME280;49184;55.596;37.770;2023-10-19T18:53:28;98811.72;;;7.31;78.78
63096;BME280;49184;55.596;37.770;2023-10-19T18:55:57;98893.25;;;7.86;78.84
63096;BME280;49184;55.596;37.770;2023-10-19T18:58:24;98833.34;;;7.50;78.67
63096;BME280;49184;55.596;37.770;2023-10-19T19:00:56;98826.41;;;7.44;78.62
63096;BME280;49184;55.596;37.770;2023-10-19T19:03:24;98812.31;;;7.42;78.61
63096;BME280;49184;55.596;37.770;2023-10-19T19:06:13;98859.13;;;7.66;78.78
63096;BME280;49184;55.596;37.770;2023-10-19T19:08:48;98845.00;;;7.64;78.51
63096;BME280;49184;55.596;37.770;2023-10-19T19:11:16;98847.91;;;7.68;78.30
63096;BME280;49184;55.596;37.770;2023-10-19T19:13:46;98850.97;;;7.66;78.43
63096;BME280;49184;55.596;37.770;2023-10-19T19:16:19;98899.59;;;7.95;78.70
63096;BME280;49184;55.596;37.770;2023-10-19T19:18:47;98833.03;;;7.51;78.82
63096;BME280;49184;55.596;37.770;2023-10-19T19:21:15;98878.66;;;7.82;79.00
63096;BME280;49184;55.596;37.770;2023-10-19T19:23:41;98838.69;;;7.55;79.21
63096;BME280;49184;55.596;37.770;2023-10-19T19:26:15;98830.22;;;7.57;78.87
63096;BME280;49184;55.596;37.770;2023-10-19T19:28:44;98793.72;;;7.35;79.10
63096;BME280;49184;55.596;37.770;2023-10-19T19:31:17;98906.72;;;8.05;79.15
63096;BME280;49184;55.596;37.770;2023-10-19T19:33:53;98818.75;;;7.46;79.02
63096;BME280;49184;55.596;37.770;2023-10-19T19:36:22;98830.63;;;7.50;79.22
63096;BME280;49184;55.596;37.770;2023-10-19T19:38:51;98787.78;;;7.19;78.99
63096;BME280;49184;55.596;37.770;2023-10-19T19:41:28;98835.75;;;7.51;79.13
63096;BME280;49184;55.596;37.770;2023-10-19T19:43:56;98870.78;;;7.81;78.61
63096;BME280;49184;55.596;37.770;2023-10-19T19:46:23;98910.53;;;8.04;78.87
63096;BME280;49184;55.596;37.770;2023-10-19T19:48:51;98859.69;;;7.77;78.90
63096;BME280;49184;55.596;37.770;2023-10-19T19:51:19;98834.44;;;7.63;78.58
63096;BME280;49184;55.596;37.770;2023-10-19T19:53:48;98872.09;;;7.83;78.63
63096;BME280;49184;55.596;37.770;2023-10-19T19:56:15;98879.03;;;7.89;78.05
63096;BME280;49184;55.596;37.770;2023-10-19T19:58:41;98836.56;;;7.66;78.47
63096;BME280;49184;55.596;37.770;2023-10-19T20:01:15;98866.34;;;7.85;78.19
63096;BME280;49184;55.596;37.770;2023-10-19T20:03:51;98839.28;;;7.66;78.00
63096;BME280;49184;55.596;37.770;2023-10-19T20:06:19;98800.81;;;7.45;78.05
63096;BME280;49184;55.596;37.770;2023-10-19T20:08:46;98808.38;;;7.48;78.02
63096;BME280;49184;55.596;37.770;2023-10-19T20:11:21;98828.22;;;7.62;78.22
63096;BME280;49184;55.596;37.770;2023-10-19T20:13:53;98907.09;;;8.12;78.22
63096;BME280;49184;55.596;37.770;2023-10-19T20:16:33;98835.75;;;7.65;78.03
63096;BME280;49184;55.596;37.770;2023-10-19T20:19:02;98841.38;;;7.69;78.25
63096;BME280;49184;55.596;37.770;2023-10-19T20:22:28;98855.78;;;7.69;78.38
63096;BME280;49184;55.596;37.770;2023-10-19T20:25:05;98866.75;;;7.78;78.56
63096;BME280;49184;55.596;37.770;2023-10-19T20:27:57;98786.06;;;7.23;78.70
63096;BME280;49184;55.596;37.770;2023-10-19T20:30:37;98803.06;;;7.29;79.12
63096;BME280;49184;55.596;37.770;2023-10-19T20:33:33;98907.81;;;8.04;78.54
63096;BME280;49184;55.596;37.770;2023-10-19T20:36:29;98808.09;;;7.36;78.82
63096;BME280;49184;55.596;37.770;2023-10-19T20:39:04;98852.88;;;7.66;78.42
63096;BME280;49184;55.596;37.770;2023-10-19T20:41:31;98830.81;;;7.53;78.17
63096;BME280;49184;55.596;37.770;2023-10-19T20:44:01;98876.03;;;7.77;78.20
63096;BME280;49184;55.596;37.770;2023-10-19T20:46:29;98877.03;;;7.67;78.55
63096;BME280;49184;55.596;37.770;2023-10-19T20:49:00;98928.41;;;7.96;78.72
63096;BME280;49184;55.596;37.770;2023-10-19T20:51:51;98915.91;;;7.95;78.54
63096;BME280;49184;55.596;37.770;2023-10-19T20:54:19;98918.63;;;7.95;78.60
63096;BME280;49184;55.596;37.770;2023-10-19T20:56:45;98878.56;;;7.73;78.41
63096;BME280;49184;55.596;37.770;2023-10-19T20:59:11;98842.03;;;7.52;78.36
63096;BME280;49184;55.596;37.770;2023-10-19T21:02:11;98925.16;;;7.94;78.66
63096;BME280;49184;55.596;37.770;2023-10-19T21:05:29;98796.63;;;7.11;78.77
63096;BME280;49184;55.596;37.770;2023-10-19T21:08:03;98812.31;;;7.14;78.76
63096;BME280;49184;55.596;37.770;2023-10-19T21:10:29;98812.53;;;7.18;78.86
63096;BME280;49184;55.596;37.770;2023-10-19T21:13:00;98811.13;;;7.20;78.53
63096;BME280;49184;55.596;37.770;2023-10-19T21:15:27;98809.31;;;7.16;78.58
63096;BME280;49184;55.596;37.770;2023-10-19T21:17:57;98846.84;;;7.41;78.66
63096;BME280;49184;55.596;37.770;2023-10-19T21:20:24;98806.69;;;7.11;78.38
63096;BME280;49184;55.596;37.770;2023-10-19T21:22:52;98892.28;;;7.68;78.43
63096;BME280;49184;55.596;37.770;2023-10-19T21:25:20;98934.78;;;7.92;78.48
63096;BME280;49184;55.596;37.770;2023-10-19T21:27:46;98898.31;;;7.65;78.60
63096;BME280;49184;55.596;37.770;2023-10-19T21:30:15;98912.13;;;7.69;78.29
63096;BME280;49184;55.596;37.770;2023-10-19T21:32:45;98937.91;;;7.85;78.51
63096;BME280;49184;55.596;37.770;2023-10-19T21:35:16;98936.59;;;7.83;78.72
63096;BME280;49184;55.596;37.770;2023-10-19T21:37:42;98890.38;;;7.55;78.98
63096;BME280;49184;55.596;37.770;2023-10-19T21:40:09;98898.72;;;7.59;78.90